createdAt,value
2019-04-19T00:01:12.188Z,14.63
2019-04-19T00:03:40.808Z,16.73
2019-04-19T00:06:18.997Z,14.07
2019-04-19T00:09:06.529Z,12.78
2019-04-19T00:11:25.996Z,14.00
2019-04-19T00:13:45.292Z,14.13
2019-04-19T00:16:15.062Z,17.52
2019-04-19T00:19:01.350Z,15.25
2019-04-19T00:21:29.651Z,16.57
2019-04-19T00:23:48.079Z,14.95
2019-04-19T00:26:14.866Z,15.25
2019-04-19T00:28:50.568Z,17.35
2019-04-19T00:31:26.551Z,13.95
2019-04-19T00:33:48.356Z,14.40
2019-04-19T00:36:16.174Z,12.58
2019-04-19T00:38:57.768Z,16.70
2019-04-19T00:41:37.063Z,16.50
2019-04-19T00:44:23.796Z,17.32
2019-04-19T00:46:59.887Z,12.98
2019-04-19T00:49:15.962Z,16.05
2019-04-19T00:51:49.298Z,23.67
2019-04-19T00:54:18.057Z,16.27
2019-04-19T00:56:48.131Z,14.90
2019-04-19T00:59:12.925Z,13.93
2019-04-19T01:01:39.641Z,13.43
2019-04-19T01:04:15.652Z,15.00
2019-04-19T01:06:45.437Z,19.67
2019-04-19T01:09:23.731Z,14.98
2019-04-19T01:11:55.603Z,17.17
2019-04-19T01:14:21.951Z,18.55
2019-04-19T01:17:00.925Z,17.25
2019-04-19T01:19:14.504Z,17.45
2019-04-19T01:21:40.818Z,25.20
2019-04-19T01:24:09.710Z,20.40
2019-04-19T01:26:45.928Z,14.20
2019-04-19T01:29:12.322Z,14.68
2019-04-19T01:31:39.655Z,15.80
2019-04-19T01:34:12.043Z,15.70
2019-04-19T01:36:43.596Z,15.88
2019-04-19T01:39:23.136Z,20.05
2019-04-19T01:41:51.546Z,18.90
2019-04-19T01:44:42.701Z,16.87
2019-04-19T01:47:03.136Z,22.73
2019-04-19T01:49:36.866Z,17.90
2019-04-19T01:52:18.250Z,16.52
2019-04-19T01:54:45.383Z,17.85
2019-04-19T01:57:05.436Z,15.72
2019-04-19T01:59:35.254Z,15.05
2019-04-19T02:02:03.922Z,17.77
2019-04-19T02:04:33.299Z,15.58
2019-04-19T02:07:00.635Z,18.02
2019-04-19T02:09:46.842Z,14.65
2019-04-19T02:12:18.163Z,16.87
2019-04-19T02:14:42.817Z,15.72
2019-04-19T02:17:06.274Z,18.57
2019-04-19T02:19:33.778Z,17.75
2019-04-19T02:22:09.974Z,17.23
2019-04-19T02:24:37.332Z,16.85
2019-04-19T02:27:08.217Z,19.55
2019-04-19T02:29:36.327Z,17.95
2019-04-19T02:32:24.498Z,16.02
2019-04-19T02:34:59.012Z,19.07
2019-04-19T02:37:23.235Z,19.20
2019-04-19T02:40:16.031Z,22.90
2019-04-19T02:42:47.365Z,19.95
2019-04-19T02:47:44.297Z,15.43
2019-04-19T02:50:01.786Z,18.87
2019-04-19T02:57:47.815Z,20.05
2019-04-19T03:02:53.411Z,16.82
2019-04-19T03:07:34.458Z,19.85
2019-04-19T03:10:04.947Z,26.73
2019-04-19T03:12:48.948Z,15.38
2019-04-19T03:15:18.426Z,22.50
2019-04-19T03:17:58.567Z,20.17
2019-04-19T03:20:28.114Z,21.35
2019-04-19T03:22:53.629Z,17.92
2019-04-19T03:25:22.948Z,19.87
2019-04-19T03:27:52.344Z,16.30
2019-04-19T03:30:29.516Z,21.12
2019-04-19T03:35:26.718Z,19.65
2019-04-19T03:38:02.673Z,19.12
2019-04-19T03:40:29.943Z,22.73
2019-04-19T03:43:28.304Z,24.95
2019-04-19T03:45:56.251Z,19.20
2019-04-19T03:48:21.004Z,20.15
2019-04-19T03:50:54.681Z,18.40
2019-04-19T03:53:31.248Z,19.95
2019-04-19T03:56:01.718Z,18.90
2019-04-19T03:58:11.688Z,20.23
2019-04-19T04:00:36.374Z,24.30
2019-04-19T04:03:10.434Z,21.65
2019-04-19T04:05:39.115Z,20.88
2019-04-19T04:08:17.651Z,18.17
2019-04-19T04:10:54.256Z,27.27
2019-04-19T04:13:37.311Z,25.65
2019-04-19T04:16:11.510Z,18.82
2019-04-19T04:18:30.743Z,27.40
2019-04-19T04:21:00.737Z,19.42
2019-04-19T04:23:34.218Z,20.85
2019-04-19T04:26:06.601Z,24.35
2019-04-19T04:28:45.598Z,19.30
2019-04-19T04:31:14.540Z,24.90
2019-04-19T04:33:42.338Z,21.15
2019-04-19T04:36:23.749Z,19.70
2019-04-19T04:38:37.949Z,18.42
2019-04-19T04:41:08.473Z,19.57
2019-04-19T04:43:43.588Z,19.05
2019-04-19T04:46:27.730Z,19.32
2019-04-19T04:48:52.706Z,17.10
2019-04-19T04:51:31.104Z,18.52
2019-04-19T04:53:47.003Z,24.15
2019-04-19T04:56:25.978Z,20.08
2019-04-19T04:58:59.175Z,20.25
2019-04-19T05:01:37.498Z,17.02
2019-04-19T05:04:11.882Z,18.77
2019-04-19T05:06:49.631Z,20.62
2019-04-19T05:09:19.552Z,20.50
2019-04-19T05:11:51.110Z,19.98
2019-04-19T05:14:17.653Z,23.70
2019-04-19T05:17:10.431Z,17.40
2019-04-19T05:19:20.223Z,19.67
2019-04-19T05:21:44.561Z,19.90
2019-04-19T05:24:22.115Z,20.27
2019-04-19T05:26:51.698Z,16.48
2019-04-19T05:29:14.539Z,21.45
2019-04-19T05:31:39.694Z,20.30
2019-04-19T05:34:22.362Z,15.28
2019-04-19T05:36:53.496Z,15.72
2019-04-19T05:39:41.331Z,19.52
2019-04-19T05:42:11.848Z,19.67
2019-04-19T05:44:54.922Z,22.70
2019-04-19T05:47:18.410Z,20.32
2019-04-19T05:49:46.708Z,18.02
2019-04-19T05:52:22.623Z,18.80
2019-04-19T05:54:34.531Z,22.52
2019-04-19T05:57:22.241Z,17.85
2019-04-19T05:59:44.415Z,26.73
2019-04-19T06:02:15.886Z,18.12
2019-04-19T06:05:02.485Z,23.40
2019-04-19T06:07:24.076Z,25.88
2019-04-19T06:09:36.842Z,18.35
2019-04-19T06:12:12.631Z,15.55
2019-04-19T06:15:05.289Z,18.73
2019-04-19T06:17:45.136Z,19.27
2019-04-19T06:20:13.645Z,17.37
2019-04-19T06:22:47.729Z,23.27
2019-04-19T06:25:17.802Z,18.17
2019-04-19T06:28:12.990Z,17.85
2019-04-19T06:30:21.900Z,23.38
2019-04-19T06:32:49.555Z,20.68
2019-04-19T06:35:13.969Z,20.23
2019-04-19T06:37:34.175Z,20.50
2019-04-19T06:40:12.553Z,15.95
2019-04-19T06:42:43.132Z,16.40
2019-04-19T06:45:22.670Z,20.57
2019-04-19T06:47:42.859Z,19.82
2019-04-19T06:50:06.800Z,22.07
2019-04-19T06:52:37.935Z,15.13
2019-04-19T06:55:14.193Z,17.27
2019-04-19T06:57:51.119Z,23.10
2019-04-19T07:00:20.519Z,18.60
2019-04-19T07:02:39.409Z,19.75
2019-04-19T07:05:22.630Z,20.92
2019-04-19T07:08:07.487Z,18.62
2019-04-19T07:10:37.092Z,18.05
2019-04-19T07:12:56.181Z,18.23
2019-04-19T07:15:38.565Z,18.25
2019-04-19T07:17:55.878Z,15.72
2019-04-19T07:20:26.527Z,17.07
2019-04-19T07:22:58.797Z,14.20
2019-04-19T07:25:38.215Z,17.48
2019-04-19T07:27:54.000Z,16.17
2019-04-19T07:30:13.863Z,11.35
2019-04-19T07:32:46.916Z,12.93
2019-04-19T07:35:36.708Z,18.90
2019-04-19T07:38:12.215Z,12.73
2019-04-19T07:40:37.283Z,11.38
2019-04-19T07:43:04.262Z,11.03
2019-04-19T07:45:31.964Z,8.25
2019-04-19T07:48:03.728Z,19.05
2019-04-19T07:50:40.328Z,18.07
2019-04-19T07:53:02.619Z,11.08
2019-04-19T07:55:38.436Z,13.15
2019-04-19T08:00:56.424Z,12.93
2019-04-19T08:03:38.907Z,13.25
2019-04-19T08:05:59.442Z,11.57
2019-04-19T08:08:40.151Z,13.58
2019-04-19T08:11:07.540Z,9.93
2019-04-19T08:16:04.941Z,8.60
2019-04-19T08:28:20.462Z,8.58
2019-04-19T08:30:45.272Z,8.28
2019-04-19T08:33:08.664Z,10.58
2019-04-19T08:35:41.122Z,10.32
2019-04-19T08:38:13.726Z,11.80
2019-04-19T08:40:55.634Z,7.75
2019-04-19T08:43:25.038Z,8.58
2019-04-19T08:45:40.449Z,10.80
2019-04-19T08:48:27.159Z,9.00
2019-04-19T08:50:57.789Z,9.45
2019-04-19T08:53:41.791Z,9.50
2019-04-19T08:56:15.280Z,7.37
2019-04-19T08:58:44.771Z,11.08
2019-04-19T09:01:20.875Z,9.25
2019-04-19T09:03:51.254Z,10.48
2019-04-19T09:07:05.742Z,9.70
2019-04-19T09:08:46.060Z,10.45
2019-04-19T09:11:16.327Z,11.57
2019-04-19T09:13:51.046Z,11.40
2019-04-19T09:16:20.266Z,16.20
2019-04-19T09:18:55.731Z,13.90
2019-04-19T09:21:18.103Z,12.47
2019-04-19T09:23:43.890Z,8.78
2019-04-19T09:26:30.548Z,15.05
2019-04-19T09:29:00.054Z,8.43
2019-04-19T09:31:26.513Z,9.35
2019-04-19T09:33:45.947Z,7.87
2019-04-19T09:36:17.252Z,10.13
2019-04-19T09:39:00.954Z,8.08
2019-04-19T09:41:24.469Z,10.95
2019-04-19T09:43:54.447Z,9.28
2019-04-19T09:46:14.645Z,7.83
2019-04-19T09:49:00.982Z,7.55
2019-04-19T09:51:36.758Z,9.38
2019-04-19T09:54:08.617Z,9.00
2019-04-19T09:56:34.165Z,10.13
2019-04-19T09:58:57.349Z,8.73
2019-04-19T10:01:21.119Z,7.37
2019-04-19T10:03:53.861Z,7.35
2019-04-19T10:06:18.041Z,7.92
2019-04-19T10:08:47.732Z,7.80
2019-04-19T10:11:16.987Z,8.50
2019-04-19T10:13:46.468Z,9.80
2019-04-19T10:16:16.862Z,8.67
2019-04-19T10:18:53.615Z,13.53
2019-04-19T10:21:26.729Z,9.50
2019-04-19T10:23:50.217Z,6.53
2019-04-19T10:26:27.262Z,9.20
2019-04-19T10:28:56.318Z,8.00
2019-04-19T10:31:43.238Z,7.93
2019-04-19T10:34:12.281Z,8.80
2019-04-19T10:36:40.941Z,6.87
2019-04-19T10:39:11.911Z,10.60
2019-04-19T10:41:40.613Z,7.28
2019-04-19T10:44:14.072Z,9.75
2019-04-19T10:46:40.699Z,8.93
2019-04-19T10:49:19.365Z,10.00
2019-04-19T10:51:43.922Z,15.80
2019-04-19T10:54:12.748Z,7.90
2019-04-19T10:56:59.846Z,9.00
2019-04-19T10:59:30.131Z,7.45
2019-04-19T11:02:02.128Z,9.03
2019-04-19T11:04:31.432Z,7.95
2019-04-19T11:07:03.267Z,10.05
2019-04-19T11:09:33.241Z,9.15
2019-04-19T11:12:02.305Z,6.37
2019-04-19T11:14:32.238Z,8.33
2019-04-19T11:17:01.802Z,14.33
2019-04-19T11:19:47.110Z,8.87
2019-04-19T11:22:01.631Z,6.97
2019-04-19T11:24:31.830Z,7.00
2019-04-19T11:27:01.383Z,8.73
2019-04-19T11:29:30.023Z,6.77
2019-04-19T11:32:03.846Z,6.53
2019-04-19T11:34:33.406Z,10.47
2019-04-19T11:37:02.135Z,7.53
2019-04-19T11:39:31.016Z,7.60
2019-04-19T11:42:01.225Z,7.50
2019-04-19T11:44:30.994Z,5.83
2019-04-19T11:47:00.469Z,7.97
2019-04-19T11:49:34.327Z,8.97
2019-04-19T11:52:00.738Z,6.80
2019-04-19T11:54:30.444Z,7.00
2019-04-19T11:57:06.346Z,8.47
2019-04-19T11:59:49.411Z,7.57
2019-04-19T12:02:17.824Z,7.83
2019-04-19T12:04:46.773Z,7.20
2019-04-19T12:07:16.565Z,8.20
2019-04-19T12:09:45.250Z,10.13
2019-04-19T12:12:14.920Z,8.13
2019-04-19T12:14:43.989Z,7.97
2019-04-19T12:17:13.274Z,9.80
2019-04-19T12:19:50.401Z,6.63
2019-04-19T12:22:12.923Z,7.60
2019-04-19T12:24:42.680Z,7.62
2019-04-19T12:27:11.696Z,14.10
2019-04-19T12:29:46.231Z,10.17
2019-04-19T12:32:11.701Z,6.93
2019-04-19T12:34:40.686Z,10.43
2019-04-19T12:37:09.616Z,7.80
2019-04-19T12:39:38.976Z,7.90
2019-04-19T12:42:11.225Z,9.23
2019-04-19T12:44:40.542Z,12.27
2019-04-19T12:47:11.042Z,6.83
2019-04-19T12:49:50.949Z,10.27
2019-04-19T12:52:10.316Z,7.70
2019-04-19T12:54:39.353Z,8.53
2019-04-19T12:57:10.169Z,6.00
2019-04-19T12:59:39.993Z,7.20
2019-04-19T13:02:13.720Z,8.70
2019-04-19T13:04:44.477Z,7.40
2019-04-19T13:07:15.128Z,6.30
2019-04-19T13:09:44.694Z,10.40
2019-04-19T13:12:14.745Z,6.73
2019-04-19T13:14:44.044Z,7.83
2019-04-19T13:17:12.920Z,13.00
2019-04-19T13:19:42.929Z,6.13
2019-04-19T13:22:12.299Z,6.80
2019-04-19T13:24:42.320Z,6.13
2019-04-19T13:27:11.642Z,10.87
2019-04-19T13:29:41.531Z,7.70
2019-04-19T13:32:11.558Z,9.83
2019-04-19T13:34:41.173Z,7.87
2019-04-19T13:37:11.756Z,7.07
2019-04-19T13:39:58.568Z,6.87
2019-04-19T13:42:32.953Z,6.80
2019-04-19T13:45:11.170Z,7.50
2019-04-19T13:47:34.376Z,6.27
2019-04-19T13:50:18.475Z,8.93
2019-04-19T13:52:36.619Z,5.17
2019-04-19T13:55:08.675Z,7.90
2019-04-19T13:57:37.739Z,6.87
2019-04-19T14:00:12.235Z,9.10
2019-04-19T14:02:41.208Z,7.20
2019-04-19T14:05:11.432Z,9.20
2019-04-19T14:07:41.153Z,6.20
2019-04-19T14:10:10.259Z,6.10
2019-04-19T14:12:39.089Z,10.00
2019-04-19T14:15:08.887Z,8.00
2019-04-19T14:17:37.981Z,7.25
2019-04-19T14:20:10.754Z,6.10
2019-04-19T14:22:39.794Z,7.15
2019-04-19T14:25:11.557Z,6.10
2019-04-19T14:27:41.777Z,7.55
2019-04-19T14:30:11.373Z,7.83
2019-04-19T14:32:41.079Z,6.45
2019-04-19T14:35:12.107Z,7.30
2019-04-19T14:37:43.762Z,7.50
2019-04-19T14:40:15.719Z,6.80
2019-04-19T14:42:44.701Z,9.55
2019-04-19T14:45:16.253Z,6.80
2019-04-19T14:47:45.223Z,10.40
2019-04-19T14:50:16.869Z,8.80
2019-04-19T14:52:46.502Z,9.38
2019-04-19T14:55:16.080Z,10.68
2019-04-19T14:57:46.223Z,5.27
2019-04-19T15:00:18.924Z,5.83
2019-04-19T15:02:50.553Z,10.30
2019-04-19T15:05:37.680Z,8.60
2019-04-19T15:08:06.803Z,7.50
2019-04-19T15:10:35.666Z,6.80
2019-04-19T15:13:04.916Z,6.90
2019-04-19T15:15:33.686Z,7.33
2019-04-19T15:18:02.292Z,5.50
2019-04-19T15:20:32.087Z,6.70
2019-04-19T15:23:02.323Z,6.13
2019-04-19T15:25:31.908Z,7.30
2019-04-19T15:28:01.247Z,5.87
2019-04-19T15:30:30.815Z,10.43
2019-04-19T15:33:00.390Z,4.43
2019-04-19T15:35:29.843Z,7.93
2019-04-19T15:37:59.385Z,6.83
2019-04-19T15:40:30.036Z,9.23
2019-04-19T15:43:01.106Z,8.97
2019-04-19T15:45:31.294Z,9.03
2019-04-19T15:48:00.821Z,7.50
2019-04-19T15:50:31.855Z,7.63
2019-04-19T15:53:02.180Z,5.43
2019-04-19T15:55:32.266Z,8.93
2019-04-19T15:58:02.230Z,8.37
2019-04-19T16:00:58.859Z,10.77
2019-04-19T16:03:29.958Z,12.20
2019-04-19T16:06:02.231Z,5.93
2019-04-19T16:08:32.830Z,7.20
2019-04-19T16:11:20.266Z,10.33
2019-04-19T16:13:49.852Z,6.83
2019-04-19T16:16:21.229Z,5.90
2019-04-19T16:18:49.848Z,8.47
2019-04-19T16:21:29.596Z,6.37
2019-04-19T16:23:51.150Z,8.67
2019-04-19T16:26:21.225Z,9.63
2019-04-19T16:28:51.510Z,9.37
2019-04-19T16:31:22.270Z,8.43
2019-04-19T16:33:52.261Z,10.90
2019-04-19T16:36:21.186Z,8.10
2019-04-19T16:38:50.996Z,7.70
2019-04-19T16:41:20.091Z,9.20
2019-04-19T16:43:49.406Z,10.00
2019-04-19T16:46:24.226Z,13.83
2019-04-19T16:48:50.859Z,10.63
2019-04-19T16:51:19.788Z,14.20
2019-04-19T16:53:51.811Z,9.33
2019-04-19T16:56:21.778Z,12.13
2019-04-19T16:58:51.001Z,9.97
2019-04-19T17:01:20.868Z,12.57
2019-04-19T17:03:50.141Z,13.47
2019-04-19T17:06:20.420Z,14.10
2019-04-19T17:08:50.371Z,9.17
2019-04-19T17:11:19.658Z,8.93
2019-04-19T17:13:49.154Z,11.27
2019-04-19T17:16:20.122Z,10.20
2019-04-19T17:18:54.704Z,15.40
2019-04-19T17:21:28.203Z,14.60
2019-04-19T17:23:58.727Z,12.50
2019-04-19T17:26:28.893Z,10.90
2019-04-19T17:28:59.065Z,9.00
2019-04-19T17:31:27.900Z,13.03
2019-04-19T17:33:56.570Z,15.27
2019-04-19T17:36:26.065Z,12.83
2019-04-19T17:38:56.701Z,17.60
2019-04-19T17:41:25.801Z,10.00
2019-04-19T17:43:55.504Z,11.30
2019-04-19T17:46:24.683Z,11.23
2019-04-19T17:48:54.894Z,16.10
2019-04-19T17:51:25.025Z,9.67
2019-04-19T17:53:53.911Z,15.20
2019-04-19T17:56:23.668Z,16.97
2019-04-19T17:58:54.105Z,17.03
2019-04-19T18:01:24.295Z,16.13
2019-04-19T18:03:56.202Z,10.90
2019-04-19T18:06:25.871Z,15.37
2019-04-19T18:09:02.221Z,10.00
2019-04-19T18:11:28.361Z,12.20
2019-04-19T18:13:55.375Z,10.40
2019-04-19T18:16:24.820Z,12.50
2019-04-19T18:18:57.373Z,11.07
2019-04-19T18:21:30.804Z,10.33
2019-04-19T18:24:06.282Z,12.97
2019-04-19T18:26:29.878Z,11.53
2019-04-19T18:28:55.955Z,13.30
2019-04-19T18:31:32.750Z,13.58
2019-04-19T18:34:03.159Z,15.78
2019-04-19T18:36:27.626Z,16.57
2019-04-19T18:38:56.367Z,17.48
2019-04-19T18:41:25.087Z,13.95
2019-04-19T18:44:04.599Z,15.95
2019-04-19T18:46:25.094Z,13.75
2019-04-19T18:48:53.912Z,16.80
2019-04-19T18:51:31.692Z,17.60
2019-04-19T18:54:05.968Z,13.85
2019-04-19T18:56:26.572Z,12.65
2019-04-19T18:58:57.544Z,12.88
2019-04-19T19:01:31.476Z,15.45
2019-04-19T19:03:56.017Z,12.28
2019-04-19T19:06:29.426Z,11.35
2019-04-19T19:09:02.436Z,11.05
2019-04-19T19:11:27.560Z,11.93
2019-04-19T19:13:57.172Z,14.10
2019-04-19T19:16:30.594Z,14.63
2019-04-19T19:18:59.340Z,15.48
2019-04-19T19:21:35.666Z,14.63
2019-04-19T19:24:23.608Z,19.23
2019-04-19T19:26:49.239Z,41.92
2019-04-19T19:29:02.802Z,82.15
2019-04-19T19:31:32.624Z,29.57
2019-04-19T19:34:01.966Z,24.98
2019-04-19T19:36:38.365Z,37.85
2019-04-19T19:39:11.362Z,25.17
2019-04-19T19:42:25.032Z,24.18
2019-04-19T19:44:22.620Z,18.67
2019-04-19T19:47:13.980Z,18.80
2019-04-19T19:51:49.937Z,21.73
2019-04-19T19:54:43.378Z,20.37
2019-04-19T19:57:03.076Z,17.30
2019-04-19T19:59:23.976Z,18.92
2019-04-19T20:01:53.981Z,22.15
2019-04-19T20:04:13.190Z,17.55
2019-04-19T20:06:50.650Z,18.02
2019-04-19T20:09:16.667Z,17.57
2019-04-19T20:11:43.695Z,17.37
2019-04-19T20:14:17.039Z,16.75
2019-04-19T20:16:43.349Z,21.20
2019-04-19T20:19:15.756Z,17.00
2019-04-19T20:21:45.108Z,21.55
2019-04-19T20:24:23.139Z,21.10
2019-04-19T20:26:53.651Z,16.42
2019-04-19T20:29:21.537Z,18.67
2019-04-19T20:31:44.596Z,19.32
2019-04-19T20:34:14.885Z,15.55
2019-04-19T20:36:45.801Z,13.15
2019-04-19T20:39:17.937Z,18.05
2019-04-19T20:41:49.797Z,13.48
2019-04-19T20:44:32.720Z,16.93
2019-04-19T20:46:44.702Z,18.07
2019-04-19T20:49:13.449Z,15.55
2019-04-19T20:51:54.626Z,19.98
2019-04-19T20:54:41.209Z,17.00
2019-04-19T20:57:04.633Z,20.57
2019-04-19T20:59:16.033Z,23.52
2019-04-19T21:01:44.550Z,15.95
2019-04-19T21:04:16.785Z,15.70
2019-04-19T21:06:44.736Z,19.00
2019-04-19T21:09:21.605Z,17.92
2019-04-19T21:11:46.237Z,17.75
2019-04-19T21:14:13.941Z,16.97
2019-04-19T21:16:50.812Z,25.05
2019-04-19T21:19:14.111Z,20.80
2019-04-19T21:21:45.776Z,16.52
2019-04-19T21:24:13.822Z,18.57
2019-04-19T21:26:43.725Z,21.60
2019-04-19T21:29:18.834Z,16.07
2019-04-19T21:31:50.316Z,16.20
2019-04-19T21:34:13.912Z,15.68
2019-04-19T21:36:50.064Z,17.27
2019-04-19T21:39:15.462Z,18.30
2019-04-19T21:41:45.283Z,21.73
2019-04-19T21:44:19.237Z,14.65
2019-04-19T21:46:44.048Z,15.43
2019-04-19T21:49:16.337Z,15.32
2019-04-19T21:51:44.007Z,13.98
2019-04-19T21:54:12.677Z,22.10
2019-04-19T21:56:44.646Z,17.40
2019-04-19T21:59:11.538Z,16.02
2019-04-19T22:01:44.778Z,15.93
2019-04-19T22:04:13.665Z,15.43
2019-04-19T22:06:43.271Z,17.80
2019-04-19T22:09:19.278Z,17.73
2019-04-19T22:11:42.587Z,17.87
2019-04-19T22:14:13.054Z,19.87
2019-04-19T22:16:44.756Z,21.20
2019-04-19T22:19:15.219Z,21.55
2019-04-19T22:21:44.855Z,16.90
2019-04-19T22:24:17.786Z,16.73
2019-04-19T22:26:47.615Z,18.80
2019-04-19T22:29:13.352Z,17.62
2019-04-19T22:31:42.065Z,22.60
2019-04-19T22:34:10.649Z,24.90
2019-04-19T22:36:42.670Z,16.00
2019-04-19T22:39:09.803Z,19.37
2019-04-19T22:41:38.914Z,16.70
2019-04-19T22:44:08.898Z,17.70
2019-04-19T22:46:41.759Z,18.23
2019-04-19T22:49:10.205Z,22.80
2019-04-19T22:51:38.395Z,22.22
2019-04-19T22:54:07.010Z,17.95
2019-04-19T22:56:48.160Z,18.45
2019-04-19T22:59:12.796Z,17.30
2019-04-19T23:01:41.209Z,17.62
2019-04-19T23:04:15.043Z,18.25
2019-04-19T23:06:38.974Z,23.12
2019-04-19T23:09:12.049Z,16.97
2019-04-19T23:11:39.485Z,16.00
2019-04-19T23:14:09.402Z,14.87
2019-04-19T23:16:43.579Z,17.67
2019-04-19T23:19:11.260Z,20.40
2019-04-19T23:21:42.821Z,19.65
2019-04-19T23:24:11.780Z,22.35
2019-04-19T23:27:00.181Z,18.75
2019-04-19T23:29:11.078Z,15.68
2019-04-19T23:31:44.214Z,16.23
2019-04-19T23:34:11.010Z,18.25
2019-04-19T23:36:39.806Z,21.42
2019-04-19T23:39:11.037Z,18.87
2019-04-19T23:41:39.387Z,16.60
2019-04-19T23:44:13.145Z,17.65
2019-04-19T23:46:39.208Z,17.42
2019-04-19T23:49:11.007Z,19.70
2019-04-19T23:51:39.115Z,17.98
2019-04-19T23:54:15.115Z,17.15
2019-04-19T23:56:50.068Z,15.65
2019-04-19T23:59:10.921Z,20.17
